Chesterfield, SC

3:44 AM EDT on September 02, 2015 (GMT -0400)
Hunts Mill | | Change Station
CLOSE
Current Station
Personal Weather Station
Location: Chesterfield, SC
Elevation: 164 ft
Nearby Weather Stations

Elev 164 ft 34.66 °N, 80.01 °W | Updated 9 minutes ago

Clear
Clear
70.9 °F
Feels Like 70.9 °F
N
0.0
Wind Variable Wind from SSW

Today
High -- | Low -- °F
--% Chance of Precip.
Yesterday
High -- | Low -- °F
Precip. -- in
6:53 AM 7:45 PM
Waning Gibbous, 82% visible
Pressure 30.07 in
Visibility 7.0 miles
Clouds Clear
Dew Point 70 °F
Humidity 97%
Rainfall 0.00 in
Snow Depth Not available.
UV 0 out of 12
Pollen 8.10 out of 12
Air Quality Not available.
Flu Activity Not available.
METAR KCQW 020735Z AUTO 26003KT 7SM CLR 21/20 A3007 RMK AO2
Pressure 30.07 in
Visibility 7.0 miles
Clouds Clear
Dew Point 70 °F
Humidity 97%
Rainfall 0.00 in
Snow Depth Not available.
UV 0 out of 12
Pollen 8.10 out of 12
Air Quality Not available.
Flu Activity Not available.
METAR KCQW 020735Z AUTO 26003KT 7SM CLR 21/20 A3007 RMK AO2

10-Day Weather Forecast

×

Almanac

Astronomy

Sep. 02, 2015 Rise Set
Actual Time
Civil Twilight
Nautical Twilight
Astronomical Twilight
Moon
Length of Visible Light
Length of Day
Tomorrow will be .
, % of the Moon is Illuminated

Today's Extremes

State Highs State Lows

Community

WunderPhotos

Upload Photos

1,851,723 photos uploaded!

WunderBlogs® & News

Nearby

Air Quality

  Air Quality AQ Index Pollutant
Not available.

Snow Depth

Station Depth Elevation

Earthquake Activity

City Distance Mag. Time & Date
Minimum magnitude displayed is 2.5.

Coastal Water Temperatures

Place Temperature

Stations

Nearby Weather Stations

Station Location Temp. Windchill Dew Point Humidity Wind Precip. Elev Updated Type